createdAt,value
2018-09-18T00:00:51.739Z,65.20
2018-09-18T00:03:21.433Z,65.30
2018-09-18T00:05:51.046Z,65.60
2018-09-18T00:08:20.617Z,65.70
2018-09-18T00:10:50.179Z,65.70
2018-09-18T00:13:19.916Z,65.80
2018-09-18T00:15:49.498Z,66.10
2018-09-18T00:18:19.156Z,65.90
2018-09-18T00:20:48.749Z,66.00
2018-09-18T00:23:18.469Z,66.00
2018-09-18T00:25:48.361Z,66.20
2018-09-18T00:28:17.993Z,66.20
2018-09-18T00:30:47.657Z,66.20
2018-09-18T00:33:17.238Z,66.30
2018-09-18T00:35:46.808Z,66.30
2018-09-18T00:38:16.402Z,66.80
2018-09-18T00:40:46.083Z,66.20
2018-09-18T00:43:15.642Z,66.20
2018-09-18T00:45:45.201Z,66.30
2018-09-18T00:48:14.789Z,66.30
2018-09-18T00:50:44.375Z,66.50
2018-09-18T00:53:13.991Z,66.50
2018-09-18T00:55:43.530Z,66.80
2018-09-18T00:58:13.104Z,67.00
2018-09-18T01:00:42.820Z,67.20
2018-09-18T01:03:12.347Z,67.20
2018-09-18T01:05:41.899Z,67.40
2018-09-18T01:08:11.472Z,67.50
2018-09-18T01:10:41.155Z,67.60
2018-09-18T01:13:10.797Z,67.80
2018-09-18T01:15:40.318Z,67.80
2018-09-18T01:18:10.634Z,67.90
2018-09-18T01:20:40.229Z,68.00
2018-09-18T01:23:09.968Z,68.10
2018-09-18T01:25:39.556Z,68.30
2018-09-18T01:28:09.106Z,68.40
2018-09-18T01:30:38.757Z,68.40
2018-09-18T01:33:08.330Z,69.40
2018-09-18T01:35:37.911Z,68.60
2018-09-18T01:38:07.822Z,68.70
2018-09-18T01:40:37.448Z,68.70
2018-09-18T01:43:07.040Z,68.70
2018-09-18T01:45:36.614Z,68.70
2018-09-18T01:48:06.181Z,68.60
2018-09-18T01:50:35.829Z,68.60
2018-09-18T01:53:05.836Z,68.60
2018-09-18T01:55:35.426Z,68.60
2018-09-18T01:58:05.029Z,69.40
2018-09-18T02:00:34.612Z,68.60
2018-09-18T02:03:04.181Z,68.60
2018-09-18T02:05:33.717Z,68.60
2018-09-18T02:08:03.291Z,68.60
2018-09-18T02:10:33.115Z,68.50
2018-09-18T02:13:02.721Z,68.50
2018-09-18T02:15:32.342Z,68.50
2018-09-18T02:18:01.855Z,68.50
2018-09-18T02:20:31.433Z,68.50
2018-09-18T02:23:00.994Z,68.70
2018-09-18T02:25:30.552Z,68.80
2018-09-18T02:28:00.125Z,68.90
2018-09-18T02:30:29.661Z,69.10
2018-09-18T02:32:59.163Z,69.30
2018-09-18T02:35:28.713Z,69.60
2018-09-18T02:37:58.283Z,69.40
2018-09-18T02:40:27.808Z,69.70
2018-09-18T02:42:57.349Z,69.90
2018-09-18T02:45:27.003Z,70.70
2018-09-18T02:47:56.757Z,70.70
2018-09-18T02:50:26.376Z,70.60
2018-09-18T02:52:55.902Z,71.00
2018-09-18T02:55:25.593Z,71.10
2018-09-18T02:57:55.123Z,71.90
2018-09-18T03:00:24.770Z,72.60
2018-09-18T03:02:54.309Z,73.00
2018-09-18T03:05:23.949Z,73.50
2018-09-18T03:07:53.943Z,74.60
2018-09-18T03:10:23.456Z,73.90
2018-09-18T03:12:53.033Z,73.50
2018-09-18T03:15:22.646Z,73.40
2018-09-18T03:17:52.203Z,75.00
2018-09-18T03:20:21.866Z,75.20
2018-09-18T03:22:51.432Z,74.30
2018-09-18T03:25:21.110Z,75.00
2018-09-18T03:27:50.708Z,75.40
2018-09-18T03:30:20.411Z,76.60
2018-09-18T03:32:50.055Z,75.70
2018-09-18T03:35:19.639Z,76.10
2018-09-18T03:37:49.215Z,76.20
2018-09-18T03:40:18.841Z,77.40
2018-09-18T03:42:48.398Z,76.80
2018-09-18T03:45:18.039Z,76.60
2018-09-18T03:47:47.576Z,78.20
2018-09-18T03:50:17.148Z,78.20
2018-09-18T03:52:46.710Z,78.20
2018-09-18T03:55:16.299Z,79.80
2018-09-18T03:57:45.820Z,78.80
2018-09-18T04:00:15.329Z,78.40
2018-09-18T04:02:44.934Z,78.30
2018-09-18T04:05:14.958Z,79.60
2018-09-18T04:07:44.508Z,79.10
2018-09-18T04:10:14.093Z,80.00
2018-09-18T04:12:43.697Z,79.90
2018-09-18T04:15:13.345Z,80.00
2018-09-18T04:17:43.018Z,79.90
2018-09-18T04:20:12.697Z,79.80
2018-09-18T04:22:42.559Z,80.20
2018-09-18T04:25:12.149Z,81.00
2018-09-18T04:27:41.705Z,81.00
2018-09-18T04:30:11.284Z,80.50
2018-09-18T04:32:40.934Z,81.20
2018-09-18T04:35:10.533Z,80.60
2018-09-18T04:37:40.087Z,81.20
2018-09-18T04:40:09.802Z,81.40
2018-09-18T04:42:39.390Z,81.30
2018-09-18T04:45:09.003Z,81.30
2018-09-18T04:47:38.614Z,82.50
2018-09-18T04:50:08.317Z,81.60
2018-09-18T04:52:37.953Z,82.80
2018-09-18T04:55:07.577Z,81.70
2018-09-18T04:57:37.164Z,81.90
2018-09-18T05:00:07.426Z,82.40
2018-09-18T05:02:37.192Z,82.10
2018-09-18T05:05:07.226Z,81.70
2018-09-18T05:07:36.758Z,81.90
2018-09-18T05:10:06.393Z,81.90
2018-09-18T05:12:39.383Z,82.70
2018-09-18T05:15:08.961Z,82.90
2018-09-18T05:17:38.870Z,82.10
2018-09-18T05:20:08.467Z,82.70
2018-09-18T05:22:38.131Z,82.80
2018-09-18T05:25:08.018Z,82.50
2018-09-18T05:27:37.645Z,82.90
2018-09-18T05:30:07.325Z,82.30
2018-09-18T05:32:36.872Z,82.30
2018-09-18T05:35:06.739Z,83.00
2018-09-18T05:37:36.381Z,82.00
2018-09-18T05:40:06.355Z,82.30
2018-09-18T05:42:35.974Z,82.90
2018-09-18T05:45:06.330Z,82.70
2018-09-18T05:47:35.906Z,82.50
2018-09-18T05:50:05.923Z,82.70
2018-09-18T05:52:35.469Z,83.60
2018-09-18T05:55:05.250Z,83.60
2018-09-18T05:57:34.822Z,85.20
2018-09-18T06:00:04.455Z,83.50
2018-09-18T06:02:34.189Z,83.70
2018-09-18T06:05:03.901Z,86.40
2018-09-18T06:07:33.497Z,83.80
2018-09-18T06:10:03.062Z,84.20
2018-09-18T06:12:32.713Z,84.00
2018-09-18T06:15:02.300Z,83.90
2018-09-18T06:17:31.887Z,84.80
2018-09-18T06:20:01.422Z,84.50
2018-09-18T06:22:31.168Z,86.10
2018-09-18T06:25:01.007Z,85.40
2018-09-18T06:27:30.648Z,85.50
2018-09-18T06:30:00.365Z,86.80
2018-09-18T06:32:30.087Z,86.50
2018-09-18T06:34:59.727Z,85.90
2018-09-18T06:37:29.398Z,85.80
2018-09-18T06:39:59.091Z,85.80
2018-09-18T06:42:28.797Z,86.20
2018-09-18T06:44:58.414Z,86.60
2018-09-18T06:47:28.040Z,87.00
2018-09-18T06:49:57.749Z,86.00
2018-09-18T06:52:27.359Z,85.70
2018-09-18T06:54:57.219Z,86.20
2018-09-18T06:57:26.938Z,85.50
2018-09-18T06:59:56.689Z,86.00
2018-09-18T07:02:26.410Z,85.20
2018-09-18T07:04:56.043Z,85.20
2018-09-18T07:07:25.701Z,84.90
2018-09-18T07:09:55.243Z,85.10
2018-09-18T07:12:24.902Z,84.90
2018-09-18T07:14:54.642Z,84.80
2018-09-18T07:17:24.362Z,85.00
2018-09-18T07:19:54.079Z,84.50
2018-09-18T07:22:23.708Z,84.70
2018-09-18T07:24:53.419Z,84.70
2018-09-18T07:27:23.070Z,84.50
2018-09-18T07:29:53.092Z,84.90
2018-09-18T07:32:22.679Z,85.10
2018-09-18T07:34:52.301Z,84.90
2018-09-18T07:37:21.920Z,85.00
2018-09-18T07:39:51.555Z,84.40
2018-09-18T07:42:21.212Z,83.80
2018-09-18T07:44:50.805Z,83.30
2018-09-18T07:47:20.409Z,82.90
2018-09-18T07:49:50.077Z,82.10
2018-09-18T07:52:19.694Z,82.30
2018-09-18T07:54:49.344Z,82.40
2018-09-18T07:57:18.962Z,82.10
2018-09-18T07:59:48.690Z,81.10
2018-09-18T08:02:18.291Z,79.80
2018-09-18T08:04:47.950Z,79.90
2018-09-18T08:07:17.665Z,79.80
2018-09-18T08:09:47.331Z,78.90
2018-09-18T08:12:16.941Z,78.40
2018-09-18T08:14:46.527Z,77.90
2018-09-18T08:17:16.253Z,77.50
2018-09-18T08:19:46.107Z,77.20
2018-09-18T08:22:15.647Z,77.20
2018-09-18T08:24:45.265Z,76.00
2018-09-18T08:27:14.843Z,76.20
2018-09-18T08:29:44.502Z,76.00
2018-09-18T08:32:14.147Z,75.80
2018-09-18T08:34:43.668Z,75.60
2018-09-18T08:37:13.227Z,75.00
2018-09-18T08:39:42.834Z,74.20
2018-09-18T08:42:12.307Z,73.40
2018-09-18T08:44:41.777Z,72.80
2018-09-18T08:47:11.295Z,71.80
2018-09-18T08:49:40.781Z,72.00
2018-09-18T08:52:10.464Z,71.70
2018-09-18T08:54:39.898Z,71.50
2018-09-18T08:57:09.409Z,70.80
2018-09-18T08:59:39.111Z,69.90
2018-09-18T09:02:08.688Z,68.90
2018-09-18T09:04:38.209Z,67.60
2018-09-18T09:07:07.740Z,65.60
2018-09-18T09:09:37.307Z,65.20
2018-09-18T09:12:07.037Z,66.40
2018-09-18T09:14:36.547Z,65.10
2018-09-18T09:17:05.936Z,65.80
2018-09-18T09:19:35.404Z,65.10
2018-09-18T09:22:04.991Z,65.20
2018-09-18T09:24:34.656Z,65.30
2018-09-18T09:27:04.109Z,65.30
2018-09-18T09:29:33.790Z,65.40
2018-09-18T09:32:03.320Z,65.10
2018-09-18T09:34:32.905Z,65.10
2018-09-18T09:37:02.462Z,64.60
2018-09-18T09:39:31.929Z,64.40
2018-09-18T09:42:01.518Z,64.20
2018-09-18T09:44:31.014Z,64.30
2018-09-18T09:47:00.531Z,63.60
2018-09-18T09:49:30.086Z,63.40
2018-09-18T09:51:59.621Z,62.70
2018-09-18T09:54:29.098Z,60.10
2018-09-18T09:56:58.679Z,60.00
2018-09-18T09:59:28.177Z,58.70
2018-09-18T10:02:03.710Z,59.40
2018-09-18T10:04:33.321Z,59.50
2018-09-18T10:07:02.886Z,58.80
2018-09-18T10:09:32.540Z,58.60
2018-09-18T10:12:02.037Z,58.80
2018-09-18T10:14:31.626Z,56.70
2018-09-18T10:17:01.361Z,55.80
2018-09-18T10:19:31.059Z,55.00
2018-09-18T10:22:00.649Z,55.00
2018-09-18T10:24:30.182Z,55.70
2018-09-18T10:26:59.809Z,55.70
2018-09-18T10:29:29.284Z,54.90
2018-09-18T10:31:59.001Z,52.90
2018-09-18T10:34:29.693Z,53.00
2018-09-18T10:36:59.468Z,53.90
2018-09-18T10:39:29.208Z,53.50
2018-09-18T10:41:58.912Z,54.30
2018-09-18T10:44:28.567Z,54.90
2018-09-18T10:46:58.133Z,53.70
2018-09-18T10:49:28.256Z,53.90
2018-09-18T10:51:58.067Z,53.40
2018-09-18T10:54:27.569Z,52.10
2018-09-18T10:56:57.150Z,50.50
2018-09-18T10:59:26.749Z,51.30
2018-09-18T11:01:56.237Z,51.10
2018-09-18T11:04:26.158Z,51.30
2018-09-18T11:06:55.786Z,50.20
2018-09-18T11:09:25.537Z,49.40
2018-09-18T11:11:55.115Z,46.50
2018-09-18T11:14:24.699Z,48.40
2018-09-18T11:16:54.182Z,48.50
2018-09-18T11:19:23.697Z,47.80
2018-09-18T11:21:53.297Z,47.70
2018-09-18T11:24:22.901Z,48.50
2018-09-18T11:26:52.387Z,47.70
2018-09-18T11:29:21.939Z,47.50
2018-09-18T11:31:51.459Z,46.30
2018-09-18T11:34:21.135Z,47.90
2018-09-18T11:36:51.039Z,47.70
2018-09-18T11:39:20.604Z,47.80
2018-09-18T11:41:50.194Z,46.40
2018-09-18T11:44:19.699Z,46.60
2018-09-18T11:46:49.294Z,46.10
2018-09-18T11:49:18.837Z,46.30
2018-09-18T11:51:48.369Z,45.10
2018-09-18T11:54:17.918Z,45.80
2018-09-18T11:56:47.558Z,45.20
2018-09-18T11:59:17.041Z,44.50
2018-09-18T12:01:46.639Z,45.10
2018-09-18T12:04:16.311Z,45.10
2018-09-18T12:06:45.808Z,45.00
2018-09-18T12:09:15.349Z,43.40
2018-09-18T12:11:44.779Z,43.90
2018-09-18T12:14:14.298Z,43.30
2018-09-18T12:16:43.858Z,44.10
2018-09-18T12:19:13.501Z,43.70
2018-09-18T12:21:43.248Z,42.70
2018-09-18T12:24:12.831Z,43.50
2018-09-18T12:26:42.378Z,43.90
2018-09-18T12:29:11.953Z,44.10
2018-09-18T12:31:41.480Z,42.20
2018-09-18T12:34:11.039Z,41.90
2018-09-18T12:36:40.633Z,42.20
2018-09-18T12:39:10.523Z,42.60
2018-09-18T12:41:41.388Z,41.70
2018-09-18T12:44:10.981Z,40.70
2018-09-18T12:46:40.636Z,39.50
2018-09-18T12:49:10.213Z,39.60
2018-09-18T12:51:39.746Z,38.80
2018-09-18T12:54:09.301Z,39.40
2018-09-18T12:56:38.823Z,38.30
2018-09-18T12:59:08.367Z,39.00
2018-09-18T13:01:37.925Z,38.20
2018-09-18T13:04:07.450Z,37.60
2018-09-18T13:06:37.484Z,36.70
2018-09-18T13:09:09.377Z,37.70
2018-09-18T13:11:38.950Z,37.10
2018-09-18T13:14:09.090Z,36.40
2018-09-18T13:16:38.816Z,36.30
2018-09-18T13:19:08.365Z,35.90
2018-09-18T13:21:37.907Z,36.90
2018-09-18T13:24:07.871Z,37.90
2018-09-18T13:26:37.484Z,37.90
2018-09-18T13:29:07.101Z,36.80
2018-09-18T13:31:36.671Z,35.60
2018-09-18T13:34:06.238Z,36.50
2018-09-18T13:36:35.975Z,35.90
2018-09-18T13:39:06.849Z,36.00
2018-09-18T13:41:36.509Z,35.50
2018-09-18T13:44:06.095Z,36.00
2018-09-18T13:46:35.708Z,35.30
2018-09-18T13:49:05.369Z,33.70
2018-09-18T13:51:34.911Z,34.80
2018-09-18T13:54:04.480Z,35.20
2018-09-18T13:56:34.110Z,33.70
2018-09-18T13:59:03.721Z,32.90
2018-09-18T14:01:33.440Z,33.60
2018-09-18T14:04:03.150Z,33.20
2018-09-18T14:06:32.981Z,32.90
2018-09-18T14:09:02.557Z,33.20
2018-09-18T14:11:32.052Z,33.60
2018-09-18T14:14:01.676Z,32.90
2018-09-18T14:16:31.210Z,32.70
2018-09-18T14:19:00.792Z,33.10
2018-09-18T14:21:30.346Z,32.90
2018-09-18T14:23:59.896Z,33.20
2018-09-18T14:26:29.625Z,33.60
2018-09-18T14:28:59.284Z,33.40
2018-09-18T14:31:28.814Z,33.70
2018-09-18T14:33:58.353Z,33.70
2018-09-18T14:36:27.896Z,33.30
2018-09-18T14:38:57.364Z,33.40
2018-09-18T14:41:26.918Z,32.60
2018-09-18T14:43:56.465Z,32.30
2018-09-18T14:46:26.078Z,32.80
2018-09-18T14:48:55.664Z,32.50
2018-09-18T14:51:25.247Z,32.90
2018-09-18T14:53:54.800Z,32.90
2018-09-18T14:56:24.524Z,32.00
2018-09-18T14:58:54.632Z,32.20
2018-09-18T15:01:24.318Z,32.40
2018-09-18T15:03:53.796Z,32.50
2018-09-18T15:06:23.383Z,32.20
2018-09-18T15:08:52.922Z,33.00
2018-09-18T15:11:22.515Z,33.40
2018-09-18T15:13:52.447Z,33.30
2018-09-18T15:16:22.073Z,33.50
2018-09-18T15:18:51.740Z,33.40
2018-09-18T15:21:21.325Z,33.70
2018-09-18T15:23:51.237Z,33.70
2018-09-18T15:26:20.720Z,33.70
2018-09-18T15:28:50.212Z,34.30
2018-09-18T15:31:19.800Z,33.90
2018-09-18T15:33:49.397Z,33.70
2018-09-18T15:36:19.007Z,34.30
2018-09-18T15:38:48.579Z,34.40
2018-09-18T15:41:18.170Z,34.40
2018-09-18T15:43:47.677Z,34.40
2018-09-18T15:46:17.477Z,35.10
2018-09-18T15:48:47.142Z,34.30
2018-09-18T15:51:16.668Z,34.60
2018-09-18T15:53:46.324Z,35.00
2018-09-18T15:56:15.876Z,35.00
2018-09-18T15:58:45.599Z,35.40
2018-09-18T16:01:15.155Z,35.30
2018-09-18T16:03:44.719Z,35.50
2018-09-18T16:06:14.204Z,35.40
2018-09-18T16:08:43.724Z,36.10
2018-09-18T16:11:13.236Z,36.20
2018-09-18T16:13:42.812Z,36.40
2018-09-18T16:16:12.706Z,36.90
2018-09-18T16:18:42.249Z,37.00
2018-09-18T16:21:12.058Z,37.20
2018-09-18T16:23:41.554Z,37.90
2018-09-18T16:26:11.128Z,37.70
2018-09-18T16:28:40.699Z,37.80
2018-09-18T16:31:10.358Z,38.20
2018-09-18T16:33:39.915Z,38.30
2018-09-18T16:36:09.849Z,38.90
2018-09-18T16:38:39.386Z,38.10
2018-09-18T16:41:08.935Z,38.00
2018-09-18T16:43:38.441Z,37.90
2018-09-18T16:46:08.066Z,37.80
2018-09-18T16:48:37.698Z,38.20
2018-09-18T16:51:07.227Z,38.60
2018-09-18T16:53:36.713Z,38.80
2018-09-18T16:56:06.223Z,38.80
2018-09-18T16:58:35.778Z,38.80
2018-09-18T17:01:05.501Z,39.10
2018-09-18T17:03:35.171Z,39.30
2018-09-18T17:06:05.145Z,39.50
2018-09-18T17:08:34.657Z,39.60
2018-09-18T17:11:04.314Z,39.60
2018-09-18T17:13:33.831Z,39.80
2018-09-18T17:16:03.405Z,40.00
2018-09-18T17:18:32.953Z,40.10
2018-09-18T17:21:02.422Z,40.20
2018-09-18T17:23:31.996Z,40.40
2018-09-18T17:26:01.557Z,40.60
2018-09-18T17:28:31.183Z,40.70
2018-09-18T17:31:01.133Z,41.10
2018-09-18T17:33:30.671Z,41.40
2018-09-18T17:36:00.253Z,41.70
2018-09-18T17:38:29.801Z,42.20
2018-09-18T17:40:59.364Z,41.50
2018-09-18T17:43:29.050Z,42.10
2018-09-18T17:45:58.623Z,42.20
2018-09-18T17:48:28.136Z,42.40
2018-09-18T17:50:57.668Z,42.40
2018-09-18T17:53:27.282Z,42.60
2018-09-18T17:55:57.175Z,42.70
2018-09-18T17:58:26.723Z,42.70
2018-09-18T18:00:56.241Z,42.90
2018-09-18T18:03:26.221Z,43.10
2018-09-18T18:05:55.805Z,43.10
2018-09-18T18:08:25.521Z,43.10
2018-09-18T18:10:55.112Z,43.10
2018-09-18T18:13:24.641Z,43.10
2018-09-18T18:15:54.248Z,43.20
2018-09-18T18:18:23.865Z,43.20
2018-09-18T18:20:53.436Z,43.20
2018-09-18T18:23:23.139Z,43.20
2018-09-18T18:25:53.181Z,43.40
2018-09-18T18:28:22.736Z,43.40
2018-09-18T18:30:52.261Z,43.40
2018-09-18T18:33:21.893Z,43.40
2018-09-18T18:35:51.459Z,43.50
2018-09-18T18:38:20.984Z,43.70
2018-09-18T18:40:50.582Z,43.70
2018-09-18T18:43:20.593Z,43.80
2018-09-18T18:45:50.082Z,43.90
2018-09-18T18:48:19.628Z,44.00
2018-09-18T18:50:49.554Z,43.90
2018-09-18T18:53:19.174Z,43.90
2018-09-18T18:55:48.652Z,43.90
2018-09-18T18:58:18.189Z,43.80
2018-09-18T19:00:47.927Z,43.90
2018-09-18T19:03:17.399Z,43.90
2018-09-18T19:05:46.878Z,44.00
2018-09-18T19:08:16.403Z,43.90
2018-09-18T19:10:45.944Z,44.10
2018-09-18T19:13:15.425Z,44.30
2018-09-18T19:15:45.006Z,44.30
2018-09-18T19:18:14.563Z,44.50
2018-09-18T19:20:44.474Z,44.50
2018-09-18T19:23:14.041Z,44.90
2018-09-18T19:25:43.873Z,44.90
2018-09-18T19:28:13.437Z,45.30
2018-09-18T19:30:42.968Z,45.30
2018-09-18T19:33:12.759Z,45.20
2018-09-18T19:35:42.220Z,45.30
2018-09-18T19:38:11.782Z,45.20
2018-09-18T19:40:42.713Z,45.20
2018-09-18T19:43:12.343Z,45.20
2018-09-18T19:45:43.604Z,45.70
2018-09-18T19:48:13.077Z,45.60
2018-09-18T19:50:42.598Z,45.60
2018-09-18T19:53:12.138Z,45.90
2018-09-18T19:55:42.828Z,46.10
2018-09-18T19:58:12.870Z,46.10
2018-09-18T20:00:42.380Z,46.10
2018-09-18T20:03:11.892Z,46.30
2018-09-18T20:05:41.523Z,46.40
2018-09-18T20:08:11.048Z,46.30
2018-09-18T20:10:40.572Z,46.60
2018-09-18T20:13:10.167Z,46.60
2018-09-18T20:15:39.688Z,46.50
2018-09-18T20:18:09.292Z,46.60
2018-09-18T20:20:38.844Z,46.60
2018-09-18T20:23:08.711Z,46.80
2018-09-18T20:25:38.495Z,46.90
2018-09-18T20:28:08.524Z,46.90
2018-09-18T20:30:38.085Z,47.00
2018-09-18T20:33:07.703Z,47.50
2018-09-18T20:35:37.311Z,47.30
2018-09-18T20:38:06.851Z,47.50
2018-09-18T20:40:36.746Z,47.50
2018-09-18T20:43:06.268Z,47.70
2018-09-18T20:45:36.800Z,47.70
2018-09-18T20:48:06.461Z,48.00
2018-09-18T20:50:36.043Z,48.00
2018-09-18T20:53:05.521Z,48.30
2018-09-18T20:55:35.230Z,48.40
2018-09-18T20:58:04.861Z,48.50
2018-09-18T21:00:34.467Z,48.40
2018-09-18T21:03:04.140Z,48.50
2018-09-18T21:05:33.809Z,48.70
2018-09-18T21:08:03.330Z,48.90
2018-09-18T21:10:32.909Z,48.80
2018-09-18T21:13:02.542Z,48.80
2018-09-18T21:15:32.231Z,48.90
2018-09-18T21:18:01.822Z,49.00
2018-09-18T21:20:31.437Z,49.20
2018-09-18T21:23:01.020Z,49.30
2018-09-18T21:25:38.245Z,49.30
2018-09-18T21:28:07.812Z,49.30
2018-09-18T21:30:37.327Z,49.30
2018-09-18T21:33:07.028Z,49.30
2018-09-18T21:35:36.572Z,49.60
2018-09-18T21:38:06.191Z,49.70
2018-09-18T21:40:36.086Z,49.70
2018-09-18T21:43:06.083Z,49.70
2018-09-18T21:45:35.670Z,50.00
2018-09-18T21:48:05.301Z,50.00
2018-09-18T21:50:38.332Z,50.00
2018-09-18T21:53:10.417Z,50.00
2018-09-18T21:55:39.996Z,50.40
2018-09-18T21:58:09.597Z,50.20
2018-09-18T22:00:39.535Z,50.20
2018-09-18T22:03:09.122Z,50.40
2018-09-18T22:05:38.707Z,50.50
2018-09-18T22:08:08.282Z,50.60
2018-09-18T22:10:37.884Z,50.60
2018-09-18T22:13:07.452Z,50.60
2018-09-18T22:15:36.954Z,50.70
2018-09-18T22:18:06.655Z,50.80
2018-09-18T22:20:36.160Z,50.90
2018-09-18T22:23:05.692Z,51.10
2018-09-18T22:25:35.230Z,51.00
2018-09-18T22:28:04.756Z,51.30
2018-09-18T22:30:34.238Z,51.00
2018-09-18T22:33:03.752Z,51.10
2018-09-18T22:35:33.307Z,51.00
2018-09-18T22:38:02.876Z,51.10
2018-09-18T22:40:32.682Z,51.20
2018-09-18T22:43:02.187Z,51.30
2018-09-18T22:45:31.750Z,51.10
2018-09-18T22:48:01.326Z,51.20
2018-09-18T22:50:30.889Z,51.30
2018-09-18T22:53:00.384Z,51.30
2018-09-18T22:55:29.862Z,51.40
2018-09-18T22:57:59.385Z,51.40
2018-09-18T23:00:28.963Z,51.50
2018-09-18T23:02:58.433Z,51.40
2018-09-18T23:05:27.944Z,51.70
2018-09-18T23:07:57.754Z,51.80
2018-09-18T23:10:27.258Z,51.80
2018-09-18T23:12:56.792Z,51.80
2018-09-18T23:15:26.381Z,52.10
2018-09-18T23:17:55.848Z,51.90
2018-09-18T23:20:25.426Z,51.90
2018-09-18T23:22:54.934Z,52.00
2018-09-18T23:25:24.509Z,52.50
2018-09-18T23:27:54.051Z,52.50
2018-09-18T23:30:23.591Z,52.40
2018-09-18T23:32:54.383Z,52.60
2018-09-18T23:35:24.193Z,53.00
2018-09-18T23:37:53.727Z,52.90
2018-09-18T23:40:23.261Z,53.10
2018-09-18T23:42:52.953Z,53.10
2018-09-18T23:45:22.480Z,53.10
2018-09-18T23:47:51.979Z,53.20
2018-09-18T23:50:21.555Z,53.60
2018-09-18T23:52:51.044Z,53.40
2018-09-18T23:55:20.682Z,53.40
2018-09-18T23:57:50.220Z,53.40
